Hovedside
METAR-TAF:

METAR-TAF

Lufthavner :

Ålesund lufthavn. Vigra

Ålesund, Norge

breddegrad: 62-34N, lengdegrad: 006-07E, høyde over havet: 2 m

Gjeldene værobservasjon

Denne rapporten ble laget for 5 minutter siden, klokken 13:20 UTC
Vind 7 kt fra Øst-sørøst
Temperatur 7°C
Luftfuktighet 61%
Trykk 1019 hPa
Sikt 10 km eller mer
ingen skyer under 1500 m og ingen bygeskyer

METAR: ENAL 181320Z 12007KT CAVOK 07/00 Q1019

Tid: 15:25 (13:25 UTC)

Varsel

Denne rapporten ble laget for 2 timer og 25 minutter siden, klokken 11:00 UTC
Varsel gyldig fra 18. klokken 12 UTC til 18. klokken 21 UTC
Vind 12 kt fra Øst-nordøst
Sikt 10 km eller mer
ingen skyer under 1500 m og ingen bygeskyer

TAF: ENAL 181100Z 1812/1821 07012KT CAVOK

Værobservasjoner og værvarsel for over 4000 flyplasser (METAR- og TAF-rapporter).

Tilgjengelige stasjoner er representert av de røde og gule prikkene på kartet.

Hold musepekeren over prikken for å se navnet på stasjonen.

Klikk så for å se værobservasjoner og -varsler.

For å forandre kartet kan du klikke på den grønne knappen med svart kryss for å zoome inn, på den grønne knappen med strek for å zoome ut, eller på de grønne pilene for å se tilstøtende kart.


METAR-TAF: